Time;durP1;ratioP1;P1;durP2;ratioP2;P2;SDS_P1;SDS_P2;PMS_P1;PMS_P2;Temp;Humidity;BMP_temperature;BMP_pressure;BME280_temperature;BME280_humidity;BME280_pressure;Samples;Min_cycle;Max_cycle;Signal;HPM_P1;HPM_P2
2022/08/09 00:02:26;;;;;;;15.97;6.33;;;;;;;18.39;64.64;100868.75;4161526;28;21501;-67
2022/08/09 00:04:53;;;;;;;14.87;7.43;;;;;;;18.41;64.81;100872.94;4163013;28;20274;-68
2022/08/09 00:07:42;;;;;;;17.43;7.07;;;;;;;18.35;64.70;100876.38;4161108;28;21566;-67
2022/08/09 00:10:10;;;;;;;13.67;6.73;;;;;;;18.31;65.26;100875.09;4149987;28;21819;-65
2022/08/09 00:12:46;;;;;;;9.60;4.07;;;;;;;18.38;64.37;100876.00;4175163;28;20245;-67
2022/08/09 00:15:17;;;;;;;11.43;4.80;;;;;;;18.37;64.27;100877.03;4162528;28;20305;-67
2022/08/09 00:17:44;;;;;;;8.50;4.00;;;;;;;18.30;64.99;100873.41;4173250;28;20229;-68
2022/08/09 00:20:31;;;;;;;10.90;3.30;;;;;;;18.27;65.72;100873.78;4153719;28;20351;-66
2022/08/09 00:22:59;;;;;;;9.03;3.63;;;;;;;18.28;65.77;100878.13;4164836;28;25173;-67
2022/08/09 00:25:46;;;;;;;6.90;3.23;;;;;;;18.30;65.72;100873.41;4174211;28;20305;-66
2022/08/09 00:28:18;;;;;;;9.70;3.00;;;;;;;18.22;66.39;100871.63;4160414;28;20243;-65
2022/08/09 00:30:50;;;;;;;11.37;2.83;;;;;;;18.17;66.93;100868.66;4172769;28;21144;-67
2022/08/09 00:33:17;;;;;;;4.17;2.60;;;;;;;18.14;67.32;100877.09;4164440;28;20237;-67
2022/08/09 00:35:44;;;;;;;13.57;2.93;;;;;;;18.14;67.93;100875.25;4162690;28;20520;-67
2022/08/09 00:38:11;;;;;;;8.80;2.77;;;;;;;18.08;67.69;100880.53;4169760;28;20287;-66
2022/08/09 00:40:38;;;;;;;6.47;2.50;;;;;;;18.08;68.63;100878.66;4165362;28;20243;-66
2022/08/09 00:43:19;;;;;;;7.47;2.10;;;;;;;17.99;69.13;100879.75;4159454;28;20238;-68
2022/08/09 00:46:08;;;;;;;10.80;2.43;;;;;;;17.91;69.64;100879.81;4162384;28;20321;-66
2022/08/09 00:48:35;;;;;;;10.17;2.80;;;;;;;17.77;70.75;100875.22;4159770;28;20354;-66
2022/08/09 00:51:03;;;;;;;5.07;2.10;;;;;;;17.80;70.60;100869.47;4156762;28;20238;-66
2022/08/09 00:53:38;;;;;;;6.87;2.23;;;;;;;17.81;70.48;100887.34;4164949;28;20243;-66
2022/08/09 00:56:06;;;;;;;5.33;2.53;;;;;;;17.81;70.88;100887.34;4163852;28;20242;-66
2022/08/09 00:58:35;;;;;;;8.53;2.03;;;;;;;17.71;71.36;100884.88;4152915;28;20234;-66
2022/08/09 01:01:10;;;;;;;6.33;2.30;;;;;;;17.62;71.97;100881.38;4168789;28;20297;-66
2022/08/09 01:04:04;;;;;;;9.80;2.47;;;;;;;17.64;71.92;100884.75;4171382;28;20289;-66
2022/08/09 01:07:23;;;;;;;5.17;2.30;;;;;;;17.59;72.55;100880.94;4161060;28;20231;-69
2022/08/09 01:10:26;;;;;;;8.13;2.13;;;;;;;17.49;72.64;100886.56;4147119;28;22985;-66
2022/08/09 01:13:03;;;;;;;4.17;2.00;;;;;;;17.40;72.98;100884.94;4156980;28;20610;-68
2022/08/09 01:15:36;;;;;;;5.37;2.20;;;;;;;17.38;73.61;100886.97;4162134;28;20588;-65
2022/08/09 01:18:20;;;;;;;4.80;2.10;;;;;;;17.23;74.45;100882.34;4160593;28;20472;-66
2022/08/09 01:21:45;;;;;;;5.73;2.30;;;;;;;17.16;75.04;100881.38;4163661;28;20405;-68
2022/08/09 01:24:35;;;;;;;6.10;2.00;;;;;;;17.17;74.57;100888.44;4106179;29;20245;-67
2022/08/09 01:27:23;;;;;;;8.73;2.40;;;;;;;17.18;74.61;100890.09;4167771;28;21136;-65
2022/08/09 01:29:52;;;;;;;6.40;2.37;;;;;;;17.19;74.51;100888.25;4159268;28;20234;-67
2022/08/09 01:32:26;;;;;;;9.90;2.47;;;;;;;17.20;74.34;100888.06;4148226;28;21415;-66
2022/08/09 01:34:58;;;;;;;7.07;2.10;;;;;;;17.12;75.12;100890.81;4163266;28;20301;-68
2022/08/09 01:37:33;;;;;;;7.70;2.07;;;;;;;17.06;74.91;100892.34;4164569;28;21104;-66
2022/08/09 01:40:21;;;;;;;11.90;2.33;;;;;;;17.16;74.86;100885.91;4174830;28;21740;-66
2022/08/09 01:42:54;;;;;;;10.90;2.70;;;;;;;17.10;74.92;100882.09;4147448;28;21991;-70
2022/08/09 01:45:21;;;;;;;4.83;2.20;;;;;;;17.10;75.30;100884.78;4162164;28;21281;-67
2022/08/09 01:47:48;;;;;;;9.40;2.23;;;;;;;17.07;75.10;100885.13;4174180;28;21821;-68
2022/08/09 01:50:15;;;;;;;6.97;2.20;;;;;;;17.13;75.30;100891.66;4162464;28;20891;-66
2022/08/09 01:52:42;;;;;;;5.60;2.30;;;;;;;17.12;75.12;100889.97;4146811;28;20250;-67
2022/08/09 01:55:10;;;;;;;6.33;2.23;;;;;;;17.11;75.38;100891.81;4150895;28;20238;-67
2022/08/09 01:57:42;;;;;;;6.80;2.60;;;;;;;17.04;75.54;100889.03;4163569;28;20445;-66
2022/08/09 02:00:12;;;;;;;16.33;2.87;;;;;;;17.03;75.78;100890.00;4163806;28;20610;-69
2022/08/09 02:02:59;;;;;;;7.87;2.40;;;;;;;17.02;76.15;100896.41;4156074;28;20282;-67
2022/08/09 02:05:27;;;;;;;10.70;2.40;;;;;;;17.02;75.77;100896.41;4159985;28;25604;-68
2022/08/09 02:08:08;;;;;;;10.90;2.53;;;;;;;17.02;76.23;100895.56;4164375;28;21882;-68
2022/08/09 02:10:55;;;;;;;7.07;2.10;;;;;;;17.06;76.32;100897.72;4167183;28;20234;-67
2022/08/09 02:13:23;;;;;;;5.13;2.20;;;;;;;17.09;76.04;100899.22;4164153;28;22079;-66
2022/08/09 02:16:04;;;;;;;5.73;2.73;;;;;;;17.07;76.34;100896.72;4162490;28;20246;-69
2022/08/09 02:18:33;;;;;;;8.80;2.17;;;;;;;17.09;75.66;100902.75;4168623;28;20234;-67
2022/08/09 02:21:08;;;;;;;8.70;2.20;;;;;;;17.12;75.59;100898.88;4168533;28;21757;-68
2022/08/09 02:23:37;;;;;;;8.20;2.07;;;;;;;17.13;75.95;100897.84;4154748;28;20249;-67
2022/08/09 02:26:06;;;;;;;8.93;2.00;;;;;;;17.03;76.28;100902.63;4165970;28;20239;-66
2022/08/09 02:28:53;;;;;;;8.20;2.50;;;;;;;17.03;76.58;100900.78;4167069;28;20441;-68
2022/08/09 02:31:29;;;;;;;5.80;2.07;;;;;;;16.99;76.92;100903.97;4161739;28;20234;-69
2022/08/09 02:34:07;;;;;;;5.97;2.07;;;;;;;17.05;76.48;100903.28;4161686;28;23054;-68
2022/08/09 02:36:41;;;;;;;4.27;2.30;;;;;;;17.01;76.88;100905.47;4157728;28;20237;-66
2022/08/09 02:39:11;;;;;;;6.63;2.20;;;;;;;17.03;76.84;100908.00;4157159;28;20238;-69
2022/08/09 02:42:15;;;;;;;5.47;2.40;;;;;;;17.03;77.14;100908.00;4167597;28;20242;-68
2022/08/09 02:44:47;;;;;;;8.00;2.27;;;;;;;17.08;76.73;100905.63;4163823;28;20421;-68
2022/08/09 02:47:15;;;;;;;7.00;2.27;;;;;;;17.04;76.82;100905.16;4167356;28;22431;-67
2022/08/09 02:49:48;;;;;;;9.07;2.80;;;;;;;17.05;76.83;100906.81;4168656;28;20257;-67
2022/08/09 02:52:33;;;;;;;5.57;2.30;;;;;;;17.09;76.88;100901.91;4159872;28;20379;-69
2022/08/09 02:55:01;;;;;;;5.87;2.30;;;;;;;17.11;76.88;100907.94;4164882;28;21272;-68
2022/08/09 02:57:46;;;;;;;4.57;2.00;;;;;;;17.11;76.92;100910.63;4178068;28;20340;-69
2022/08/09 03:00:34;;;;;;;7.50;2.30;;;;;;;17.19;77.06;100913.31;4153159;28;20373;-69
2022/08/09 03:03:05;;;;;;;7.10;2.40;;;;;;;17.12;77.31;100915.03;4161991;28;20235;-67
2022/08/09 03:05:34;;;;;;;8.73;2.83;;;;;;;17.14;77.20;100910.31;4164628;28;20352;-69
2022/08/09 03:08:02;;;;;;;6.47;2.73;;;;;;;17.11;77.57;100913.31;4160333;28;23512;-67
2022/08/09 03:10:29;;;;;;;6.07;2.30;;;;;;;17.09;78.34;100913.53;4170027;28;26355;-70
2022/08/09 03:12:56;;;;;;;8.37;2.40;;;;;;;17.11;78.30;100920.56;4150681;28;25358;-68
2022/08/09 03:15:24;;;;;;;6.93;2.63;;;;;;;17.07;78.45;100914.72;4169360;28;20234;-68
2022/08/09 03:18:11;;;;;;;8.73;2.70;;;;;;;17.11;78.88;100916.00;4165249;28;20621;-68
2022/08/09 03:20:38;;;;;;;7.40;2.23;;;;;;;17.10;78.97;100919.72;4152902;28;20703;-69
2022/08/09 03:23:06;;;;;;;8.33;2.80;;;;;;;17.08;79.28;100921.75;4166334;28;21147;-69
2022/08/09 03:25:49;;;;;;;8.80;2.83;;;;;;;17.08;79.43;100921.75;4169030;28;20564;-68
2022/08/09 03:28:29;;;;;;;8.83;2.53;;;;;;;17.05;79.70;100916.75;4150433;28;20395;-68
2022/08/09 03:30:56;;;;;;;6.20;2.47;;;;;;;17.02;79.80;100917.06;4160137;28;20270;-66
2022/08/09 03:33:24;;;;;;;9.37;2.87;;;;;;;16.98;80.11;100911.22;4153535;28;20234;-67
2022/08/09 03:36:11;;;;;;;9.67;3.03;;;;;;;16.93;80.23;100912.75;4154165;28;20245;-68
2022/08/09 03:38:42;;;;;;;7.73;3.53;;;;;;;16.95;80.80;100916.97;4161692;28;20235;-67
2022/08/09 03:41:11;;;;;;;7.17;2.60;;;;;;;16.87;81.19;100915.13;4165925;28;26529;-67
2022/08/09 03:43:41;;;;;;;8.17;2.90;;;;;;;16.91;81.19;100917.47;4171659;28;20330;-66
2022/08/09 03:46:28;;;;;;;13.13;3.10;;;;;;;16.94;80.67;100917.94;4176790;28;20497;-66
2022/08/09 03:48:58;;;;;;;6.77;2.63;;;;;;;16.99;80.58;100918.25;4167187;28;20249;-68
2022/08/09 03:51:30;;;;;;;9.90;3.17;;;;;;;17.04;80.17;100917.72;4169879;28;20603;-68
2022/08/09 03:54:17;;;;;;;7.07;2.80;;;;;;;17.03;80.08;100921.44;4184824;28;22656;-68
2022/08/09 03:56:55;;;;;;;9.23;2.60;;;;;;;17.06;79.59;100923.78;4176176;28;20238;-68
2022/08/09 03:59:23;;;;;;;9.47;3.00;;;;;;;17.01;80.12;100923.47;4206232;28;20233;-66
2022/08/09 04:02:10;;;;;;;8.10;2.63;;;;;;;17.04;79.70;100929.34;4203498;28;21609;-68
2022/08/09 04:04:40;;;;;;;7.17;2.80;;;;;;;17.14;79.77;100930.97;4249690;28;20459;-68
2022/08/09 04:07:13;;;;;;;8.93;2.43;;;;;;;17.13;79.52;100938.19;4234878;28;20230;-68
2022/08/09 04:09:41;;;;;;;7.37;2.90;;;;;;;17.13;80.03;100934.69;4189468;28;21773;-66
2022/08/09 04:12:33;;;;;;;10.77;2.70;;;;;;;17.08;79.23;100932.50;4240719;28;20415;-68
2022/08/09 04:15:01;;;;;;;5.30;2.37;;;;;;;17.15;78.68;100936.16;4221096;28;20402;-66
2022/08/09 04:17:43;;;;;;;7.20;2.73;;;;;;;17.15;78.93;100936.16;4201379;28;22724;-69
2022/08/09 04:20:13;;;;;;;10.63;2.90;;;;;;;17.10;80.32;100930.50;4199796;28;20235;-66
2022/08/09 04:22:40;;;;;;;10.43;2.73;;;;;;;17.11;79.74;100932.16;4189891;28;20237;-68
2022/08/09 04:25:10;;;;;;;7.87;3.10;;;;;;;17.12;79.38;100935.69;4184811;28;20664;-67
2022/08/09 04:27:41;;;;;;;9.60;2.97;;;;;;;17.12;79.37;100933.84;4190567;28;20319;-70
2022/08/09 04:30:16;;;;;;;12.77;3.87;;;;;;;17.14;79.54;100937.19;4199865;28;23723;-68
2022/08/09 04:32:46;;;;;;;7.97;2.77;;;;;;;17.21;79.37;100931.97;4212508;28;21794;-67
2022/08/09 04:35:13;;;;;;;5.10;2.40;;;;;;;17.34;77.77;100926.81;4189991;28;20262;-67
2022/08/09 04:37:41;;;;;;;5.93;2.63;;;;;;;17.30;77.23;100929.03;4194574;28;21575;-67
2022/08/09 04:40:13;;;;;;;8.47;3.03;;;;;;;17.32;77.36;100928.00;4223680;28;22062;-67
2022/08/09 04:42:45;;;;;;;10.77;3.10;;;;;;;17.22;77.17;100939.84;4192268;28;23697;-67
2022/08/09 04:45:15;;;;;;;9.53;2.70;;;;;;;17.11;78.65;100942.91;4212066;28;20441;-67
2022/08/09 04:47:46;;;;;;;6.77;2.70;;;;;;;17.19;78.60;100944.75;4170364;28;20480;-68
2022/08/09 04:50:28;;;;;;;4.67;2.57;;;;;;;17.23;78.26;100943.34;4174282;28;20333;-68
2022/08/09 04:53:06;;;;;;;7.20;2.60;;;;;;;17.30;77.06;100945.19;4185365;28;20310;-68
2022/08/09 04:55:40;;;;;;;10.23;3.00;;;;;;;17.32;77.53;100949.53;4178857;28;21675;-67
2022/08/09 04:58:28;;;;;;;6.87;3.27;;;;;;;17.45;77.17;100947.13;4157948;28;22352;-69
2022/08/09 05:00:59;;;;;;;16.70;3.43;;;;;;;17.47;76.74;100951.31;4163809;28;20325;-67
2022/08/09 05:03:26;;;;;;;14.40;3.80;;;;;;;17.43;77.43;100954.53;4184832;28;20242;-70
2022/08/09 05:06:09;;;;;;;11.93;3.80;;;;;;;17.42;78.08;100955.53;4170731;28;20254;-70
2022/08/09 05:08:36;;;;;;;9.30;2.40;;;;;;;17.61;77.18;100954.25;4167673;28;20249;-67
2022/08/09 05:11:04;;;;;;;11.43;3.30;;;;;;;17.55;76.76;100955.78;4175612;28;20472;-70
2022/08/09 05:13:33;;;;;;;11.33;2.83;;;;;;;17.66;76.85;100947.31;4177191;28;22617;-66
2022/08/09 05:16:08;;;;;;;7.47;3.03;;;;;;;17.69;76.66;100955.00;4161860;28;22905;-67
2022/08/09 05:18:35;;;;;;;7.73;2.90;;;;;;;17.73;76.16;100959.03;4169191;28;20265;-68
2022/08/09 05:21:22;;;;;;;9.90;3.13;;;;;;;17.70;77.55;100964.78;4159420;28;20441;-67
2022/08/09 05:23:56;;;;;;;10.27;2.83;;;;;;;17.79;77.27;100964.72;4176782;28;21152;-67
2022/08/09 05:26:27;;;;;;;12.33;2.90;;;;;;;17.84;75.33;100965.91;4167304;28;20420;-67
2022/08/09 05:29:06;;;;;;;10.57;3.67;;;;;;;17.84;74.16;100970.41;4170800;28;20230;-67
2022/08/09 05:31:43;;;;;;;9.83;3.47;;;;;;;17.88;74.39;100969.06;4171192;28;21348;-65
2022/08/09 05:34:17;;;;;;;10.47;2.97;;;;;;;17.96;74.32;100971.69;4162046;28;20246;-66
2022/08/09 05:36:45;;;;;;;4.37;2.60;;;;;;;18.00;74.49;100964.91;4171164;28;20383;-67
2022/08/09 05:39:14;;;;;;;6.83;2.97;;;;;;;18.02;74.23;100968.25;4171304;28;20694;-66
2022/08/09 05:41:55;;;;;;;8.60;2.93;;;;;;;17.94;74.08;100965.66;4167071;28;20947;-68
2022/08/09 05:44:30;;;;;;;7.60;3.00;;;;;;;17.99;74.38;100971.31;4170434;28;20302;-75
2022/08/09 05:47:00;;;;;;;10.90;3.30;;;;;;;18.02;74.09;100979.03;4184266;28;20237;-73
2022/08/09 05:49:31;;;;;;;11.57;3.43;;;;;;;18.05;74.25;100967.94;4176913;28;20249;-74
2022/08/09 05:52:18;;;;;;;13.60;3.03;;;;;;;18.22;74.88;100967.78;4166558;28;21103;-70
2022/08/09 05:54:45;;;;;;;19.33;3.27;;;;;;;18.25;74.52;100970.09;4170596;28;21059;-74
2022/08/09 05:57:15;;;;;;;18.40;3.37;;;;;;;18.18;74.21;100969.16;4172217;28;20238;-73
2022/08/09 05:59:45;;;;;;;9.40;3.43;;;;;;;18.28;74.23;100967.88;4167073;28;20234;-66
2022/08/09 06:02:11;;;;;;;11.53;3.20;;;;;;;18.40;73.05;100979.03;4166934;28;20529;-65
2022/08/09 06:04:44;;;;;;;12.83;3.17;;;;;;;18.50;72.19;100982.34;4167794;28;21148;-65
2022/08/09 06:07:11;;;;;;;14.23;3.23;;;;;;;18.51;72.81;100981.28;4156900;28;20576;-67
2022/08/09 06:09:48;;;;;;;15.03;3.43;;;;;;;18.43;73.22;100981.38;4163615;28;20863;-66
2022/08/09 06:12:27;;;;;;;12.27;3.07;;;;;;;18.47;72.17;100992.63;4164970;28;20522;-65
2022/08/09 06:14:54;;;;;;;10.43;3.20;;;;;;;18.57;71.77;100993.22;4172084;28;21599;-65
2022/08/09 06:17:27;;;;;;;9.40;2.67;;;;;;;18.63;71.99;100994.31;4159557;28;20235;-65
2022/08/09 06:20:06;;;;;;;9.43;2.80;;;;;;;18.58;72.08;100992.19;4170526;28;20257;-65
2022/08/09 06:22:33;;;;;;;12.37;3.77;;;;;;;18.54;72.32;100986.34;4158740;28;20239;-62
2022/08/09 06:25:11;;;;;;;8.90;2.70;;;;;;;18.62;73.01;100992.66;4162766;28;21192;-68
2022/08/09 06:27:41;;;;;;;12.20;3.10;;;;;;;18.70;71.41;100982.63;4165149;28;20245;-65
2022/08/09 06:30:17;;;;;;;12.43;2.83;;;;;;;18.72;70.60;100985.13;4158677;28;21341;-63
2022/08/09 06:32:44;;;;;;;13.23;3.30;;;;;;;18.77;71.57;100988.13;4167563;28;20233;-66
2022/08/09 06:35:31;;;;;;;11.63;3.00;;;;;;;18.94;70.57;100992.34;4168646;28;20431;-68
2022/08/09 06:38:18;;;;;;;9.43;3.13;;;;;;;19.16;69.38;100997.81;4161684;28;21000;-66
2022/08/09 06:40:57;;;;;;;11.90;3.10;;;;;;;19.17;69.21;101000.34;4160166;28;20238;-65
2022/08/09 06:43:25;;;;;;;9.07;2.97;;;;;;;19.22;68.42;101002.44;4159833;28;21232;-65
2022/08/09 06:45:59;;;;;;;13.57;3.00;;;;;;;19.23;68.26;101001.44;4167571;28;20737;-66
2022/08/09 06:48:36;;;;;;;15.20;3.10;;;;;;;19.23;69.36;100998.72;4179073;28;21075;-62
2022/08/09 06:51:09;;;;;;;15.40;3.07;;;;;;;19.35;68.32;100999.91;4167236;28;23356;-65
2022/08/09 06:53:36;;;;;;;10.77;3.13;;;;;;;19.38;66.76;101006.81;4164351;28;20235;-65
2022/08/09 06:56:05;;;;;;;8.07;2.63;;;;;;;19.35;66.56;101005.31;4165131;28;20498;-66
2022/08/09 06:58:33;;;;;;;9.47;2.97;;;;;;;19.46;66.12;101013.97;4157313;28;20254;-65
2022/08/09 07:01:20;;;;;;;10.73;2.80;;;;;;;19.65;65.79;101018.75;4160486;28;26124;-67
2022/08/09 07:03:53;;;;;;;14.17;2.80;;;;;;;19.91;65.36;101014.72;4154925;28;20775;-68
2022/08/09 07:06:25;;;;;;;11.40;2.97;;;;;;;19.98;64.70;101018.31;4169372;28;21420;-68
2022/08/09 07:08:55;;;;;;;14.97;3.33;;;;;;;20.21;64.33;101012.72;4168463;28;20581;-65
2022/08/09 07:11:21;;;;;;;11.93;2.60;;;;;;;20.28;63.88;101019.00;4161380;28;20306;-64
2022/08/09 07:13:51;;;;;;;16.27;3.13;;;;;;;20.42;63.26;101014.56;4154862;28;22608;-65
2022/08/09 07:16:33;;;;;;;7.33;2.93;;;;;;;20.57;62.38;101023.44;4166480;28;22336;-63
2022/08/09 07:19:14;;;;;;;9.57;3.70;;;;;;;20.68;63.00;101026.66;4161052;28;20593;-65
2022/08/09 07:21:49;;;;;;;11.30;3.33;;;;;;;20.84;62.36;101029.88;4173029;28;22517;-63
2022/08/09 07:24:23;;;;;;;12.63;2.93;;;;;;;20.91;61.67;101029.94;4169967;28;20254;-65
2022/08/09 07:27:05;;;;;;;10.77;3.43;;;;;;;21.02;60.48;101034.75;4160844;28;20249;-65
2022/08/09 07:29:51;;;;;;;8.20;2.80;;;;;;;21.23;59.85;101033.81;4176688;28;20337;-63
2022/08/09 07:32:22;;;;;;;12.47;2.80;;;;;;;21.31;58.87;101029.31;4164838;28;20267;-64
2022/08/09 07:35:00;;;;;;;11.03;2.90;;;;;;;21.30;59.41;101036.56;4157644;28;20287;-65
2022/08/09 07:37:28;;;;;;;11.93;2.80;;;;;;;21.63;58.54;101031.34;4168997;28;21786;-64
2022/08/09 07:39:54;;;;;;;10.33;3.40;;;;;;;21.75;56.44;101047.00;4170855;28;20595;-65
2022/08/09 07:42:22;;;;;;;8.33;2.70;;;;;;;22.06;56.86;101050.00;4152104;28;20432;-64
2022/08/09 07:44:58;;;;;;;7.40;2.90;;;;;;;22.18;56.63;101050.22;4161368;28;20948;-67
2022/08/09 07:47:45;;;;;;;12.33;3.03;;;;;;;22.51;56.17;101049.44;4168424;28;20369;-53
2022/08/09 07:50:27;;;;;;;14.10;3.33;;;;;;;22.42;54.68;101048.81;4183187;28;20242;-47
2022/08/09 07:53:02;;;;;;;11.23;3.43;;;;;;;22.41;54.49;101052.56;4172705;28;20238;-63
2022/08/09 07:55:30;;;;;;;16.90;3.30;;;;;;;22.27;54.15;101049.00;4151534;28;20242;-64
2022/08/09 07:58:19;;;;;;;12.20;3.03;;;;;;;22.18;54.06;101047.50;4162178;28;20354;-63
2022/08/09 08:00:51;;;;;;;6.50;2.73;;;;;;;22.35;53.98;101053.41;4166446;28;22273;-63
2022/08/09 08:03:27;;;;;;;14.33;3.00;;;;;;;22.33;54.59;101056.31;4162075;28;20305;-66
2022/08/09 08:05:54;;;;;;;9.13;2.70;;;;;;;22.62;53.41;101058.84;4167328;28;20935;-66
2022/08/09 08:08:23;;;;;;;9.57;2.73;;;;;;;22.74;52.20;101059.88;4175596;28;20242;-64
2022/08/09 08:11:10;;;;;;;8.80;2.70;;;;;;;22.88;53.48;101063.41;4168994;28;21793;-64
2022/08/09 08:13:57;;;;;;;9.57;2.70;;;;;;;22.75;50.84;101059.63;4152421;28;20316;-66
2022/08/09 08:16:25;;;;;;;10.43;2.50;;;;;;;22.83;51.90;101065.91;4172560;28;20288;-64
2022/08/09 08:18:57;;;;;;;5.47;2.57;;;;;;;22.93;51.76;101066.31;4169579;28;20234;-63
2022/08/09 08:21:23;;;;;;;7.90;2.93;;;;;;;23.06;49.36;101066.34;4161400;28;21528;-67
2022/08/09 08:23:52;;;;;;;8.90;3.80;;;;;;;22.72;51.21;101067.38;4163102;28;20242;-64
2022/08/09 08:26:21;;;;;;;12.90;3.97;;;;;;;22.52;53.31;101059.25;4168362;28;20249;-64
2022/08/09 08:29:07;;;;;;;18.10;4.60;;;;;;;22.54;53.40;101059.88;4172629;28;22284;-65
2022/08/09 08:31:34;;;;;;;10.03;4.03;;;;;;;22.74;53.13;101065.31;4162888;28;20388;-64
2022/08/09 08:34:21;;;;;;;12.30;4.10;;;;;;;22.67;53.36;101062.59;4166449;28;20608;-67
2022/08/09 08:36:50;;;;;;;8.47;3.37;;;;;;;22.67;53.99;101068.00;4165046;28;20230;-65
2022/08/09 08:39:17;;;;;;;9.93;4.10;;;;;;;22.87;52.30;101064.44;4164617;28;22646;-65
2022/08/09 08:41:47;;;;;;;8.57;3.37;;;;;;;22.91;53.84;101060.25;4166935;28;20238;-66
2022/08/09 08:44:21;;;;;;;12.40;3.27;;;;;;;22.88;51.67;101074.25;4169133;28;20242;-65
2022/08/09 08:46:53;;;;;;;11.50;3.07;;;;;;;22.93;51.89;101069.03;4176552;28;20726;-66
2022/08/09 08:49:31;;;;;;;9.07;3.13;;;;;;;22.99;52.51;101070.91;4160703;28;20515;-62
2022/08/09 08:52:15;;;;;;;10.30;3.43;;;;;;;22.79;51.93;101060.06;4165018;28;20238;-66
2022/08/09 08:55:02;;;;;;;10.67;3.00;;;;;;;22.99;51.12;101068.19;4162966;28;20367;-66
2022/08/09 08:57:30;;;;;;;12.50;3.20;;;;;;;23.22;51.15;101069.63;4160650;28;20321;-65
2022/08/09 09:00:02;;;;;;;9.43;3.23;;;;;;;23.16;51.00;101069.44;4178292;28;20238;-64
2022/08/09 09:02:43;;;;;;;7.67;2.87;;;;;;;23.37;50.88;101068.34;4165161;28;20358;-65
2022/08/09 09:05:13;;;;;;;6.83;2.80;;;;;;;23.19;50.40;101070.88;4166561;28;20353;-64
2022/08/09 09:07:49;;;;;;;9.83;3.07;;;;;;;23.12;50.24;101065.47;4154453;28;23577;-65
2022/08/09 09:10:16;;;;;;;6.33;2.70;;;;;;;23.18;50.51;101069.22;4164031;28;20236;-66
2022/08/09 09:12:45;;;;;;;13.53;3.53;;;;;;;23.36;50.55;101065.81;4169857;28;20237;-64
2022/08/09 09:15:11;;;;;;;7.90;2.87;;;;;;;23.49;50.09;101064.94;4160032;28;20246;-65
2022/08/09 09:17:54;;;;;;;11.40;3.20;;;;;;;23.21;51.56;101068.78;4165645;28;20270;-65
2022/08/09 09:20:20;;;;;;;6.07;2.90;;;;;;;23.05;51.44;101061.09;4168109;28;21595;-67
2022/08/09 09:22:58;;;;;;;8.97;3.17;;;;;;;23.44;50.31;101068.31;4169585;28;25620;-65
2022/08/09 09:25:41;;;;;;;10.07;3.10;;;;;;;23.37;50.87;101067.50;4172594;28;20240;-48
2022/08/09 09:28:33;;;;;;;9.23;2.90;;;;;;;23.30;50.85;101066.69;4173373;28;20310;-46
2022/08/09 09:31:21;;;;;;;12.47;2.50;;;;;;;23.67;48.34;101066.94;4166254;28;20389;-47
2022/08/09 09:34:11;;;;;;;4.27;1.87;;;;;;;23.56;47.02;101072.00;4151977;28;20257;-47
2022/08/09 09:36:40;;;;;;;8.80;2.77;;;;;;;23.82;45.32;101078.41;4174060;28;20353;-48
2022/08/09 09:39:24;;;;;;;5.20;2.00;;;;;;;23.95;45.68;101075.63;4157338;28;20238;-46
2022/08/09 09:42:24;;;;;;;7.78;2.67;;;;;;;24.42;44.46;101086.22;4186375;28;20488;-48
2022/08/09 09:44:59;;;;;;;9.83;2.43;;;;;;;24.44;42.77;101082.22;4162805;28;20242;-49
2022/08/09 09:47:26;;;;;;;6.68;2.22;;;;;;;24.63;42.34;101074.13;4146779;28;20244;-46
2022/08/09 09:49:56;;;;;;;4.30;2.00;;;;;;;24.92;42.30;101085.41;4182547;28;22882;-50
2022/08/09 09:52:51;;;;;;;5.83;1.80;;;;;;;24.84;40.85;101079.19;4174715;28;20362;-49
2022/08/09 09:55:20;;;;;;;4.15;2.10;;;;;;;24.77;41.87;101072.97;4160677;28;20234;-48
2022/08/09 09:58:03;;;;;;;9.52;2.60;;;;;;;24.63;42.67;101085.00;4171993;28;20250;-54
2022/08/09 10:00:53;;;;;;;9.20;2.43;;;;;;;24.48;43.74;101076.34;4163733;28;20247;-46
2022/08/09 10:03:42;;;;;;;8.87;2.40;;;;;;;24.41;43.61;101077.19;4139600;28;21596;-48
2022/08/09 10:06:10;;;;;;;5.00;2.22;;;;;;;23.97;43.58;101080.84;4160327;28;20239;-49
2022/08/09 10:08:39;;;;;;;4.13;1.90;;;;;;;24.22;43.15;101075.47;4168747;28;21032;-47
2022/08/09 10:11:29;;;;;;;7.60;2.03;;;;;;;24.27;42.54;101070.19;4159145;28;22840;-51
2022/08/09 10:14:29;;;;;;;6.33;2.00;;;;;;;24.49;40.99;101072.56;4175653;28;20245;-48
2022/08/09 10:17:10;;;;;;;3.43;1.93;;;;;;;24.56;39.48;101081.50;4163874;28;20438;-48
2022/08/09 10:19:58;;;;;;;7.03;2.00;;;;;;;24.38;39.74;101076.81;4178666;28;26685;-45
2022/08/09 10:22:31;;;;;;;5.03;1.60;;;;;;;24.29;40.53;101086.28;4168783;28;20380;-54
2022/08/09 10:25:00;;;;;;;7.60;2.50;;;;;;;24.35;40.63;101080.81;4167081;28;21591;-46
2022/08/09 10:27:33;;;;;;;5.30;1.90;;;;;;;24.53;41.21;101079.22;4164518;28;25237;-46
2022/08/09 10:30:11;;;;;;;7.55;2.50;;;;;;;24.77;40.95;101072.97;4184237;28;22112;-48
2022/08/09 10:32:59;;;;;;;4.83;2.00;;;;;;;24.60;40.66;101075.41;4180842;28;21958;-47
2022/08/09 10:35:25;;;;;;;4.32;2.00;;;;;;;24.31;41.26;101074.13;4162371;28;20237;-49
2022/08/09 10:37:54;;;;;;;4.57;1.70;;;;;;;24.30;40.55;101075.19;4183698;28;20340;-49
2022/08/09 10:40:21;;;;;;;14.15;2.20;;;;;;;24.37;41.48;101078.72;4173484;28;20244;-46
2022/08/09 10:43:02;;;;;;;6.70;1.73;;;;;;;24.68;40.68;101078.88;4176738;28;23331;-50
2022/08/09 10:45:29;;;;;;;4.57;1.80;;;;;;;24.69;39.04;101075.97;4159928;28;23372;-48
2022/08/09 10:48:09;;;;;;;3.60;1.98;;;;;;;24.55;39.86;101064.34;4177662;28;20318;-46
2022/08/09 10:51:20;;;;;;;6.93;2.50;;;;;;;24.54;39.41;101072.75;4155326;28;20334;-50
2022/08/09 10:54:09;;;;;;;3.53;1.90;;;;;;;24.15;40.12;101061.91;4177655;28;21369;-48
2022/08/09 10:56:40;;;;;;;6.90;2.13;;;;;;;24.28;39.93;101069.16;4159330;28;20230;-47
2022/08/09 10:59:40;;;;;;;5.47;2.10;;;;;;;24.30;40.47;101066.19;4162412;28;20235;-47
2022/08/09 11:02:37;;;;;;;6.45;2.20;;;;;;;24.78;40.78;101057.47;4168861;28;20371;-49
2022/08/09 11:05:26;;;;;;;9.13;2.37;;;;;;;24.92;41.16;101058.16;4180182;28;21761;-48
2022/08/09 11:08:35;;;;;;;8.23;2.90;;;;;;;25.17;40.89;101056.22;4166630;28;20237;-47
2022/08/09 11:11:09;;;;;;;4.15;2.42;;;;;;;25.61;38.76;101056.13;4193281;28;20885;-51
2022/08/09 11:13:36;;;;;;;7.47;2.63;;;;;;;25.87;38.76;101055.81;4181802;28;21166;-48
2022/08/09 11:16:37;;;;;;;8.77;2.27;;;;;;;26.29;37.44;101053.09;4179555;28;21725;-69
2022/08/09 11:19:06;;;;;;;5.73;2.00;;;;;;;25.97;36.55;101058.00;4160419;28;21148;-67
2022/08/09 11:21:57;;;;;;;6.28;2.17;;;;;;;25.53;37.91;101045.56;4178032;28;20269;-66
2022/08/09 11:25:23;;;;;;;3.38;1.95;;;;;;;25.21;36.68;101052.00;4169373;28;20630;-63
2022/08/09 11:28:27;;;;;;;9.30;2.70;;;;;;;25.27;38.56;101045.66;4170684;28;20827;-64
2022/08/09 11:31:23;;;;;;;7.67;2.67;;;;;;;25.54;37.35;101050.75;4163089;28;21256;-62
2022/08/09 11:34:06;;;;;;;5.47;2.07;;;;;;;25.43;37.18;101046.09;4181930;28;25073;-64
2022/08/09 11:36:40;;;;;;;3.88;1.90;;;;;;;25.52;38.11;101044.75;4161860;28;20231;-63
2022/08/09 11:39:07;;;;;;;7.75;2.30;;;;;;;25.66;37.04;101043.50;4169491;28;20356;-68
2022/08/09 11:41:36;;;;;;;5.93;2.05;;;;;;;25.77;37.43;101039.13;4166063;28;20250;-63
2022/08/09 11:44:06;;;;;;;4.97;2.50;;;;;;;25.72;37.89;101038.19;4168305;28;21583;-66
2022/08/09 11:46:55;;;;;;;4.07;2.22;;;;;;;25.47;38.04;101033.66;4171464;28;22834;-62
2022/08/09 11:50:01;;;;;;;4.07;2.13;;;;;;;25.32;37.95;101034.06;4173210;28;20321;-63
2022/08/09 11:53:00;;;;;;;4.97;1.90;;;;;;;25.42;37.65;101028.91;4151237;29;20243;-49
2022/08/09 11:55:48;;;;;;;3.35;2.10;;;;;;;25.02;37.66;101031.25;4175169;28;21545;-48
2022/08/09 11:58:19;;;;;;;4.40;2.13;;;;;;;25.33;38.42;101024.81;4151638;28;20238;-44
2022/08/09 12:01:00;;;;;;;6.03;2.20;;;;;;;25.24;37.61;101029.78;4161512;28;21287;-44
2022/08/09 12:03:27;;;;;;;9.02;2.20;;;;;;;25.31;37.15;101029.69;4180599;28;21493;-49
2022/08/09 12:06:18;;;;;;;12.20;2.20;;;;;;;25.41;37.83;101026.44;4153228;28;22058;-46